createdAt,value
2019-05-05T01:04:47.912Z,72.20
2019-05-05T01:07:17.314Z,63.70
2019-05-05T01:09:48.131Z,45.90
2019-05-05T01:12:17.655Z,46.30
2019-05-05T01:14:48.000Z,46.80
2019-05-05T01:17:17.381Z,47.00
2019-05-05T01:20:00.268Z,47.30
2019-05-05T01:22:20.092Z,47.30
2019-05-05T01:24:49.626Z,47.50
2019-05-05T01:27:18.895Z,47.50
2019-05-05T01:29:48.195Z,47.50
2019-05-05T01:32:18.890Z,47.60
2019-05-05T01:34:50.395Z,47.70
2019-05-05T01:37:19.249Z,47.60
2019-05-05T01:39:48.495Z,47.30
2019-05-05T01:42:24.842Z,47.30
2019-05-05T01:44:59.781Z,47.20
2019-05-05T01:47:29.222Z,47.30
2019-05-05T01:49:58.638Z,47.20
2019-05-05T01:52:27.794Z,47.50
2019-05-05T01:54:58.449Z,47.60
2019-05-05T01:57:28.610Z,47.50
2019-05-05T01:59:59.859Z,47.50
2019-05-05T02:02:29.802Z,47.60
2019-05-05T02:05:06.625Z,47.60
2019-05-05T02:07:35.772Z,47.80
2019-05-05T02:10:06.023Z,48.00
2019-05-05T02:12:35.356Z,47.80
2019-05-05T02:15:04.378Z,48.10
2019-05-05T02:17:35.220Z,48.80
2019-05-05T02:20:05.273Z,48.10
2019-05-05T02:22:35.710Z,64.70
2019-05-05T02:25:04.817Z,48.20
2019-05-05T02:27:34.401Z,47.80
2019-05-05T02:30:06.197Z,49.10
2019-05-05T02:32:36.318Z,47.70
2019-05-05T02:35:06.631Z,47.80
2019-05-05T02:37:36.138Z,47.60
2019-05-05T02:40:07.514Z,47.50
2019-05-05T02:42:37.558Z,47.60
2019-05-05T02:45:09.662Z,47.80
2019-05-05T02:47:39.965Z,47.90
2019-05-05T02:50:08.947Z,47.80
2019-05-05T02:52:38.372Z,47.60
2019-05-05T02:55:07.566Z,47.70
2019-05-05T02:57:36.459Z,47.80
2019-05-05T03:00:05.648Z,48.10
2019-05-05T03:02:35.279Z,48.10
2019-05-05T03:05:04.318Z,47.80
2019-05-05T03:07:36.990Z,48.30
2019-05-05T03:10:05.731Z,48.60
2019-05-05T03:12:35.706Z,48.40
2019-05-05T03:15:04.639Z,48.10
2019-05-05T03:17:34.115Z,47.60
2019-05-05T03:20:05.912Z,48.30
2019-05-05T03:22:35.222Z,48.20
2019-05-05T03:25:04.608Z,48.40
2019-05-05T03:27:34.177Z,48.30
2019-05-05T03:30:05.058Z,48.40
2019-05-05T03:32:36.203Z,48.30
2019-05-05T03:35:05.114Z,48.60
2019-05-05T03:37:36.171Z,48.30
2019-05-05T03:40:08.796Z,48.30
2019-05-05T03:42:37.609Z,48.30
2019-05-05T03:45:07.107Z,48.30
2019-05-05T03:47:36.423Z,48.20
2019-05-05T03:50:07.052Z,48.30
2019-05-05T03:52:36.713Z,78.80
2019-05-05T03:55:07.419Z,60.80
2019-05-05T03:57:36.418Z,48.30
2019-05-05T04:00:05.169Z,48.00
2019-05-05T04:02:37.708Z,48.10
2019-05-05T04:05:06.984Z,47.90
2019-05-05T04:07:35.979Z,48.00
2019-05-05T04:10:05.373Z,47.70
2019-05-05T04:12:34.715Z,47.90
2019-05-05T04:15:03.733Z,47.90
2019-05-05T04:17:33.800Z,47.70
2019-05-05T04:20:03.844Z,47.70
2019-05-05T04:22:34.422Z,47.60
2019-05-05T04:25:04.617Z,47.70
2019-05-05T04:27:38.591Z,47.90
2019-05-05T04:30:08.564Z,47.70
2019-05-05T04:32:38.663Z,47.70
2019-05-05T04:35:10.552Z,47.50
2019-05-05T04:37:39.558Z,47.50
2019-05-05T04:40:08.437Z,47.50
2019-05-05T04:42:37.172Z,47.50
2019-05-05T04:45:06.518Z,47.40
2019-05-05T04:47:38.467Z,47.30
2019-05-05T04:50:07.583Z,47.40
2019-05-05T04:52:36.706Z,48.00
2019-05-05T04:55:06.651Z,47.70
2019-05-05T04:57:35.552Z,48.00
2019-05-05T05:00:05.898Z,48.00
2019-05-05T05:02:38.032Z,47.60
2019-05-05T05:05:07.169Z,47.70
2019-05-05T05:07:44.038Z,47.50
2019-05-05T05:10:13.860Z,47.50
2019-05-05T05:12:43.693Z,47.60
2019-05-05T05:15:14.581Z,47.30
2019-05-05T05:17:44.987Z,47.30
2019-05-05T05:20:14.305Z,47.30
2019-05-05T05:22:46.131Z,47.20
2019-05-05T05:25:16.885Z,47.10
2019-05-05T05:27:45.839Z,47.00
2019-05-05T05:30:15.034Z,47.00
2019-05-05T05:32:44.662Z,46.90
2019-05-05T05:35:14.193Z,46.80
2019-05-05T05:37:44.790Z,82.70
2019-05-05T05:40:16.840Z,47.50
2019-05-05T05:42:48.515Z,46.70
2019-05-05T05:45:17.347Z,46.70
2019-05-05T05:47:46.080Z,46.50
2019-05-05T05:50:15.684Z,46.50
2019-05-05T05:52:44.520Z,46.50
2019-05-05T05:55:14.566Z,46.40
2019-05-05T05:57:43.871Z,46.40
2019-05-05T06:00:14.488Z,46.40
2019-05-05T06:02:44.002Z,46.30
2019-05-05T06:05:14.722Z,46.30
2019-05-05T06:07:44.281Z,46.20
2019-05-05T06:10:22.279Z,46.20
2019-05-05T06:15:18.422Z,49.80
2019-05-05T06:17:47.736Z,45.70
2019-05-05T06:22:47.251Z,45.60
2019-05-05T06:25:17.184Z,61.00
2019-05-05T06:27:45.968Z,83.20
2019-05-05T06:30:18.161Z,72.60
2019-05-05T06:32:47.485Z,49.70
2019-05-05T06:35:16.549Z,53.10
2019-05-05T06:37:46.709Z,48.60
2019-05-05T06:40:16.559Z,46.10
2019-05-05T06:42:47.109Z,54.60
2019-05-05T06:45:15.816Z,60.10
2019-05-05T06:47:44.775Z,56.20
2019-05-05T06:50:14.040Z,56.20
2019-05-05T06:52:46.541Z,51.20
2019-05-05T06:55:14.097Z,68.70
2019-05-05T06:57:45.890Z,78.90
2019-05-05T07:00:17.868Z,75.40
2019-05-05T07:02:48.278Z,45.60
2019-05-05T07:05:16.875Z,46.10
2019-05-05T07:07:46.780Z,46.00
2019-05-05T07:10:16.202Z,75.20
2019-05-05T07:12:44.758Z,72.70
2019-05-05T07:15:14.971Z,73.10
2019-05-05T07:17:44.319Z,60.10
2019-05-05T07:20:14.838Z,63.90
2019-05-05T07:22:58.331Z,48.50
2019-05-05T07:25:15.486Z,51.50
2019-05-05T07:27:44.273Z,50.60
2019-05-05T07:30:13.781Z,45.50
2019-05-05T07:32:44.382Z,74.50
2019-05-05T07:35:14.539Z,46.30
2019-05-05T07:37:43.725Z,51.40
2019-05-05T07:40:13.544Z,51.30
2019-05-05T07:42:44.094Z,51.50
2019-05-05T07:45:22.112Z,52.10
2019-05-05T07:47:47.291Z,52.80
2019-05-05T07:50:28.573Z,73.10
2019-05-05T07:52:45.966Z,52.40
2019-05-05T07:55:14.554Z,51.60
2019-05-05T07:57:43.692Z,45.40
2019-05-05T08:00:14.816Z,45.40
2019-05-05T08:02:48.073Z,45.40
2019-05-05T08:05:18.271Z,45.30
2019-05-05T08:07:48.250Z,45.50
2019-05-05T08:10:17.025Z,46.00
2019-05-05T08:12:46.330Z,45.50
2019-05-05T08:15:17.488Z,45.50
2019-05-05T08:17:47.854Z,45.50
2019-05-05T08:20:23.690Z,45.50
2019-05-05T08:22:53.642Z,45.40
2019-05-05T08:25:34.455Z,45.50
2019-05-05T08:27:53.703Z,45.50
2019-05-05T08:30:24.413Z,45.50
2019-05-05T08:32:54.504Z,45.40
2019-05-05T08:35:27.399Z,45.40
2019-05-05T08:37:57.455Z,45.50
2019-05-05T08:40:26.577Z,45.40
2019-05-05T08:42:55.657Z,45.50
2019-05-05T08:45:26.772Z,45.50
2019-05-05T08:47:55.241Z,46.30
2019-05-05T08:50:27.083Z,45.90
2019-05-05T08:52:55.446Z,46.00
2019-05-05T08:55:25.676Z,46.90
2019-05-05T08:57:58.153Z,46.40
2019-05-05T09:00:26.912Z,45.70
2019-05-05T09:02:57.124Z,47.00
2019-05-05T09:05:26.242Z,48.90
2019-05-05T09:07:55.132Z,46.90
2019-05-05T09:10:24.159Z,48.00
2019-05-05T09:12:54.288Z,53.30
2019-05-05T09:15:24.318Z,51.30
2019-05-05T09:17:54.437Z,45.60
2019-05-05T09:20:25.449Z,45.70
2019-05-05T09:22:57.272Z,45.70
2019-05-05T09:25:26.480Z,46.30
2019-05-05T09:27:56.452Z,45.70
2019-05-05T09:30:25.639Z,45.70
2019-05-05T09:32:56.106Z,46.10
2019-05-05T09:35:24.856Z,45.60
2019-05-05T09:37:53.973Z,45.60
2019-05-05T09:40:24.187Z,48.10
2019-05-05T09:42:53.623Z,46.70
2019-05-05T09:45:24.432Z,45.90
2019-05-05T09:47:54.497Z,45.80
2019-05-05T09:52:37.978Z,45.80
2019-05-05T09:55:07.493Z,45.60
2019-05-05T09:57:38.853Z,45.60
2019-05-05T10:00:07.640Z,45.60
2019-05-05T10:02:38.068Z,46.10
2019-05-05T10:05:07.177Z,46.00
2019-05-05T10:07:36.537Z,45.90
2019-05-05T10:10:05.309Z,46.10
2019-05-05T10:12:34.199Z,46.60
2019-05-05T10:15:07.422Z,45.90
2019-05-05T10:17:37.313Z,45.80
2019-05-05T10:20:08.136Z,46.20
2019-05-05T10:22:36.997Z,46.60
2019-05-05T10:25:07.893Z,46.10
2019-05-05T10:27:44.846Z,45.80
2019-05-05T10:30:10.631Z,45.80
2019-05-05T10:32:59.311Z,45.70
2019-05-05T10:35:28.544Z,45.70
2019-05-05T10:37:57.424Z,46.20
2019-05-05T10:40:27.038Z,45.90
2019-05-05T10:42:55.987Z,46.70
2019-05-05T10:45:26.234Z,46.50
2019-05-05T10:47:54.755Z,45.70
2019-05-05T10:50:24.720Z,45.70
2019-05-05T10:52:54.923Z,46.90
2019-05-05T10:55:24.297Z,46.50
2019-05-05T10:57:54.255Z,46.50
2019-05-05T11:00:24.091Z,46.90
2019-05-05T11:02:53.126Z,47.00
2019-05-05T11:05:23.563Z,47.70
2019-05-05T11:07:53.731Z,46.80
2019-05-05T11:10:24.749Z,47.90
2019-05-05T11:12:54.230Z,48.70
2019-05-05T11:15:24.677Z,46.60
2019-05-05T11:17:55.053Z,47.60
2019-05-05T11:20:24.801Z,45.80
2019-05-05T11:22:57.413Z,46.90
2019-05-05T11:25:29.765Z,47.70
2019-05-05T11:28:03.471Z,46.30
2019-05-05T11:30:34.783Z,48.90
2019-05-05T11:33:05.000Z,50.70
2019-05-05T11:35:35.403Z,48.90
2019-05-05T11:38:04.961Z,50.00
2019-05-05T11:40:35.678Z,48.40
2019-05-05T11:43:07.343Z,50.30
2019-05-05T11:45:39.332Z,52.20
2019-05-05T11:49:01.582Z,51.40
2019-05-05T11:51:34.199Z,52.70
2019-05-05T11:54:04.851Z,54.20
2019-05-05T11:56:35.872Z,57.10
2019-05-05T11:59:04.532Z,58.80
2019-05-05T12:01:33.371Z,59.40
2019-05-05T12:04:03.910Z,62.40
2019-05-05T12:06:33.984Z,56.60
2019-05-05T12:09:03.031Z,57.30
2019-05-05T12:11:34.520Z,55.80
2019-05-05T12:14:04.601Z,54.20
2019-05-05T12:16:34.693Z,54.60
2019-05-05T12:19:04.009Z,56.50
2019-05-05T12:21:34.230Z,55.40
2019-05-05T12:24:14.358Z,56.90
2019-05-05T12:26:49.396Z,50.30
2019-05-05T12:29:24.438Z,53.30
2019-05-05T12:31:51.030Z,52.20
2019-05-05T12:34:20.090Z,49.90
2019-05-05T12:39:22.334Z,54.20
2019-05-05T12:41:54.290Z,54.10
2019-05-05T12:44:23.628Z,54.20
2019-05-05T12:46:53.209Z,53.70
2019-05-05T12:49:26.600Z,55.80
2019-05-05T12:51:55.974Z,56.70
2019-05-05T12:54:25.162Z,57.60
2019-05-05T12:57:51.005Z,52.80
2019-05-05T13:00:20.236Z,54.60
2019-05-05T13:02:49.603Z,54.50
2019-05-05T13:05:18.952Z,55.30
2019-05-05T13:07:47.987Z,55.30
2019-05-05T13:10:16.780Z,56.40
2019-05-05T13:12:48.321Z,57.10
2019-05-05T13:17:49.245Z,56.30
2019-05-05T13:20:17.863Z,57.40
2019-05-05T13:22:53.888Z,57.20
2019-05-05T13:25:20.392Z,57.80
2019-05-05T13:27:58.982Z,56.80
2019-05-05T13:30:35.286Z,58.90
2019-05-05T13:38:38.359Z,54.00
2019-05-05T13:41:10.800Z,58.80
2019-05-05T13:48:33.371Z,68.70
2019-05-05T13:51:04.275Z,64.70
2019-05-05T13:53:34.400Z,59.80
2019-05-05T13:56:11.489Z,55.70
2019-05-05T13:58:35.161Z,56.10
2019-05-05T14:01:04.095Z,49.20
2019-05-05T14:03:34.949Z,38.30
2019-05-05T14:06:06.938Z,37.80
2019-05-05T14:08:36.375Z,36.90
2019-05-05T14:11:06.039Z,36.10
2019-05-05T14:13:38.220Z,35.60
2019-05-05T14:16:07.387Z,35.50
2019-05-05T14:18:41.381Z,35.20
2019-05-05T14:21:10.669Z,35.10
2019-05-05T14:23:39.687Z,35.30
2019-05-05T14:26:21.612Z,34.70
2019-05-05T14:28:39.789Z,34.50
2019-05-05T14:31:10.304Z,34.40
2019-05-05T14:33:39.488Z,36.10
2019-05-05T14:36:09.806Z,35.70
2019-05-05T14:38:39.387Z,34.90
2019-05-05T14:41:10.088Z,34.80
2019-05-05T14:43:40.161Z,34.90
2019-05-05T14:46:16.329Z,34.30
2019-05-05T14:48:45.738Z,35.70
2019-05-05T14:51:15.537Z,35.50
2019-05-05T14:53:44.880Z,46.40
2019-05-05T14:56:14.828Z,60.30
2019-05-05T14:58:44.756Z,56.90
2019-05-05T16:09:09.644Z,50.70
2019-05-05T16:15:55.921Z,38.20
2019-05-05T16:18:25.381Z,38.60
2019-05-05T16:20:54.925Z,39.00
2019-05-05T16:23:24.110Z,38.80
2019-05-05T16:25:54.724Z,39.00
2019-05-05T16:28:25.125Z,39.30
2019-05-05T16:30:56.187Z,39.70
2019-05-05T16:33:24.597Z,41.00
2019-05-05T16:35:54.533Z,39.50
2019-05-05T16:38:26.786Z,38.60
2019-05-05T16:40:56.292Z,38.80
2019-05-05T16:43:25.599Z,39.40
2019-05-05T16:45:55.529Z,39.70
2019-05-05T16:48:25.858Z,40.00
2019-05-05T16:50:56.298Z,39.40
2019-05-05T16:53:25.912Z,38.50
2019-05-05T16:55:55.788Z,38.10
2019-05-05T16:58:25.239Z,39.70
2019-05-05T17:00:54.616Z,38.00
2019-05-05T17:03:23.947Z,37.80
2019-05-05T17:05:54.619Z,37.70
2019-05-05T17:08:25.131Z,37.30
2019-05-05T17:10:55.846Z,37.00
2019-05-05T17:13:26.324Z,37.00
2019-05-05T17:15:55.938Z,37.10
2019-05-05T17:18:32.885Z,37.00
2019-05-05T17:20:56.496Z,37.10
2019-05-05T17:23:25.908Z,37.30
2019-05-05T17:25:56.132Z,65.50
2019-05-05T17:28:26.022Z,37.20
2019-05-05T17:30:57.656Z,37.20
2019-05-05T17:35:58.343Z,39.90
2019-05-05T17:38:27.653Z,37.20
2019-05-05T17:40:57.363Z,46.30
2019-05-05T17:43:27.842Z,36.60
2019-05-05T17:45:57.090Z,46.30
2019-05-05T17:48:25.785Z,37.00
2019-05-05T17:50:56.625Z,47.10
2019-05-05T17:53:25.892Z,47.20
2019-05-05T17:55:55.212Z,36.80
2019-05-05T17:58:27.363Z,35.60
2019-05-05T18:00:54.833Z,35.90
2019-05-05T18:03:24.316Z,59.60
2019-05-05T18:05:59.806Z,72.30
2019-05-05T18:08:29.288Z,69.60
2019-05-05T18:10:58.936Z,71.60
2019-05-05T18:13:28.700Z,73.10
2019-05-05T18:15:57.929Z,73.50
2019-05-05T18:18:28.563Z,73.70
2019-05-05T18:20:58.896Z,75.40
2019-05-05T18:23:28.303Z,75.80
2019-05-05T18:25:57.491Z,75.10
2019-05-05T18:28:27.826Z,75.30
2019-05-05T18:30:56.912Z,75.50
2019-05-05T18:33:33.996Z,75.60
2019-05-05T18:36:04.413Z,75.50
2019-05-05T18:38:33.808Z,74.70
2019-05-05T18:41:03.699Z,75.50
2019-05-05T18:43:35.101Z,75.50
2019-05-05T18:46:07.365Z,76.20
2019-05-05T18:48:37.126Z,75.40
